Time;durP1;ratioP1;P1;durP2;ratioP2;P2;SDS_P1;SDS_P2;PMS_P1;PMS_P2;Temp;Humidity;BMP_temperature;BMP_pressure;BME280_temperature;BME280_humidity;BME280_pressure;Samples;Min_cycle;Max_cycle;Signal;HPM_P1;HPM_P2
2023/06/22 00:00:50;;;;;;;8.47;7.63;;;;;;;19.58;69.77;101229.72;4990185;28;20209;-70
2023/06/22 00:03:18;;;;;;;11.40;8.43;;;;;;;19.54;69.86;101228.91;4993531;28;20205;-70
2023/06/22 00:05:45;;;;;;;9.67;8.67;;;;;;;19.51;70.14;101237.69;4991457;28;20699;-70
2023/06/22 00:08:12;;;;;;;9.50;8.50;;;;;;;19.46;70.48;101241.47;4991461;28;20221;-70
2023/06/22 00:10:38;;;;;;;11.37;10.03;;;;;;;19.43;70.26;101228.81;4993186;28;20216;-70
2023/06/22 00:13:06;;;;;;;9.93;8.07;;;;;;;19.38;70.10;101231.06;4993317;28;20597;-70
2023/06/22 00:15:33;;;;;;;10.13;9.13;;;;;;;19.34;70.42;101238.28;4994239;28;20610;-70
2023/06/22 00:17:59;;;;;;;9.93;8.90;;;;;;;19.30;70.69;101240.19;4992319;28;20603;-70
2023/06/22 00:20:27;;;;;;;11.07;9.87;;;;;;;19.26;71.03;101244.72;4992451;28;20212;-70
2023/06/22 00:22:54;;;;;;;10.77;9.63;;;;;;;19.22;70.90;101250.03;4985544;28;20637;-70
2023/06/22 00:25:20;;;;;;;11.67;9.23;;;;;;;19.18;70.78;101243.84;4989850;28;20205;-70
2023/06/22 00:27:47;;;;;;;11.53;10.33;;;;;;;19.17;70.33;101244.19;4989505;28;20225;-70
2023/06/22 00:30:16;;;;;;;10.60;9.50;;;;;;;19.15;70.46;101257.19;4991707;28;20861;-70
2023/06/22 00:32:42;;;;;;;10.63;9.40;;;;;;;19.13;70.87;101260.25;4993361;28;20197;-70
2023/06/22 00:35:10;;;;;;;10.63;9.53;;;;;;;19.11;70.64;101259.84;4989172;28;20319;-70
2023/06/22 00:37:38;;;;;;;10.70;9.60;;;;;;;19.10;70.63;101254.84;4989177;28;20228;-70
2023/06/22 00:40:05;;;;;;;11.33;9.83;;;;;;;19.08;70.67;101262.44;4989057;28;20216;-70
2023/06/22 00:42:32;;;;;;;11.07;9.50;;;;;;;19.06;71.34;101273.56;4993953;28;20206;-70
2023/06/22 00:44:58;;;;;;;12.03;9.63;;;;;;;19.04;71.57;101262.41;4988578;28;20201;-70
2023/06/22 00:47:28;;;;;;;10.73;9.63;;;;;;;19.03;71.68;101273.50;4986913;28;20229;-69
2023/06/22 00:49:55;;;;;;;11.07;9.87;;;;;;;19.01;71.52;101273.09;4991919;28;20225;-70
2023/06/22 00:52:27;;;;;;;11.83;10.57;;;;;;;18.98;71.81;101277.28;4991904;28;20208;-70
2023/06/22 00:54:55;;;;;;;11.80;10.43;;;;;;;18.93;72.17;101274.91;4991976;28;20232;-70
2023/06/22 00:57:27;;;;;;;11.27;10.07;;;;;;;18.91;72.23;101284.44;4991398;28;20225;-70
2023/06/22 00:59:56;;;;;;;10.70;9.50;;;;;;;18.88;72.66;101277.91;4994167;28;20212;-70
2023/06/22 01:02:22;;;;;;;10.97;9.47;;;;;;;18.84;72.66;101273.66;4990183;28;20232;-70
2023/06/22 01:04:50;;;;;;;11.97;10.67;;;;;;;18.80;72.73;101275.50;4988361;28;20433;-70
2023/06/22 01:07:27;;;;;;;13.13;10.73;;;;;;;18.77;73.02;101286.94;4993026;28;20228;-70
2023/06/22 01:10:02;;;;;;;12.13;10.50;;;;;;;18.74;72.81;101282.31;4992342;28;20217;-70
2023/06/22 01:12:34;;;;;;;12.07;10.87;;;;;;;18.72;72.85;101279.22;4995495;28;20192;-70
2023/06/22 01:15:07;;;;;;;10.77;9.67;;;;;;;18.71;72.63;101269.66;4988363;28;20206;-70
2023/06/22 01:17:34;;;;;;;11.50;10.30;;;;;;;18.68;72.67;101279.19;4989256;28;20233;-71
2023/06/22 01:20:05;;;;;;;11.70;10.50;;;;;;;18.66;72.96;101284.13;4991352;28;20196;-70
2023/06/22 01:22:40;;;;;;;11.77;10.23;;;;;;;18.65;72.89;101285.28;4990443;28;20280;-70
2023/06/22 01:25:12;;;;;;;10.70;9.60;;;;;;;18.64;73.29;101294.44;4988527;28;20541;-70
2023/06/22 01:27:52;;;;;;;10.53;9.43;;;;;;;18.61;73.41;101294.34;4988545;28;20623;-70
2023/06/22 01:30:20;;;;;;;11.30;10.10;;;;;;;18.59;73.40;101288.63;4990020;28;20601;-70
2023/06/22 01:32:49;;;;;;;11.63;10.17;;;;;;;18.58;73.04;101281.72;4988328;28;20212;-70
2023/06/22 01:35:16;;;;;;;12.10;9.80;;;;;;;18.57;73.19;101280.19;4989822;28;20212;-70
2023/06/22 01:37:43;;;;;;;10.80;9.67;;;;;;;18.55;73.50;101285.91;4992906;28;20427;-70
2023/06/22 01:40:12;;;;;;;11.53;9.87;;;;;;;18.53;73.45;101295.41;4989863;28;20189;-70
2023/06/22 01:42:39;;;;;;;12.37;10.73;;;;;;;18.50;73.54;101288.88;4986488;28;20205;-70
2023/06/22 01:45:09;;;;;;;11.80;10.23;;;;;;;18.46;73.70;101282.69;4988248;28;20584;-70
2023/06/22 01:47:40;;;;;;;12.87;10.20;;;;;;;18.42;73.76;101289.91;4996719;28;21187;-70
2023/06/22 01:50:07;;;;;;;12.23;10.93;;;;;;;18.41;73.97;101293.72;4989796;28;20224;-70
2023/06/22 01:52:34;;;;;;;12.23;10.93;;;;;;;18.38;73.72;101297.09;4984262;28;20209;-70
2023/06/22 01:55:01;;;;;;;13.20;11.03;;;;;;;18.37;74.07;101287.53;4989763;28;20275;-70
2023/06/22 01:57:28;;;;;;;13.83;11.27;;;;;;;18.36;73.80;101287.91;4994021;28;20758;-70
2023/06/22 02:00:00;;;;;;;12.03;10.83;;;;;;;18.35;73.87;101275.66;4984015;28;20285;-70
2023/06/22 02:02:32;;;;;;;16.33;11.93;;;;;;;18.34;73.72;101274.13;4987068;28;20296;-70
2023/06/22 02:05:06;;;;;;;14.17;11.97;;;;;;;18.31;72.60;101280.91;4987643;28;20392;-70
2023/06/22 02:07:40;;;;;;;12.30;11.00;;;;;;;18.31;73.12;101283.59;4986729;28;20233;-70
2023/06/22 02:10:08;;;;;;;12.53;11.10;;;;;;;18.30;73.16;101266.03;4986339;28;20320;-70
2023/06/22 02:12:37;;;;;;;12.60;11.03;;;;;;;18.31;73.16;101274.81;4990452;28;20275;-70
2023/06/22 02:15:04;;;;;;;14.33;11.33;;;;;;;18.32;73.40;101287.09;4988171;28;20583;-70
2023/06/22 02:17:32;;;;;;;12.57;10.90;;;;;;;18.30;73.95;101295.44;4987254;28;20251;-70
2023/06/22 02:20:03;;;;;;;12.70;10.63;;;;;;;18.28;74.19;101289.69;4991454;28;20212;-70
2023/06/22 02:22:30;;;;;;;12.07;10.77;;;;;;;18.28;74.11;101295.03;4990492;28;20196;-70
2023/06/22 02:24:57;;;;;;;14.77;11.27;;;;;;;18.28;74.26;101296.91;4989757;28;20703;-70
2023/06/22 02:27:24;;;;;;;12.00;10.40;;;;;;;18.26;74.09;101307.97;4986992;28;20225;-70
2023/06/22 02:29:52;;;;;;;16.93;12.07;;;;;;;18.26;74.59;101305.28;4989235;28;20224;-69
2023/06/22 02:32:18;;;;;;;13.37;11.97;;;;;;;18.24;74.46;101309.44;5000945;28;20208;-70
2023/06/22 02:34:47;;;;;;;16.77;11.53;;;;;;;18.23;74.89;101316.72;4995709;28;20609;-70
2023/06/22 02:37:18;;;;;;;11.27;10.07;;;;;;;18.20;74.79;101325.44;4993915;28;20228;-70
2023/06/22 02:39:44;;;;;;;12.07;10.20;;;;;;;18.19;74.82;101323.91;4997149;28;20219;-70
2023/06/22 02:42:11;;;;;;;12.37;11.13;;;;;;;18.16;74.66;101324.63;4997015;28;20236;-70
2023/06/22 02:44:38;;;;;;;12.53;10.83;;;;;;;18.15;74.53;101325.75;4995815;28;20652;-70
2023/06/22 02:47:04;;;;;;;12.30;10.97;;;;;;;18.13;74.80;101330.69;4996593;28;20235;-70
2023/06/22 02:49:31;;;;;;;14.20;12.70;;;;;;;18.10;74.50;101327.94;4995942;28;20223;-70
2023/06/22 02:51:58;;;;;;;13.83;11.30;;;;;;;18.08;73.83;101324.84;4994212;28;20209;-70
2023/06/22 02:54:26;;;;;;;12.20;10.00;;;;;;;18.08;74.63;101322.97;4997435;28;20196;-70
2023/06/22 02:56:54;;;;;;;12.10;10.50;;;;;;;18.09;74.83;101326.41;4996598;28;20217;-70
2023/06/22 02:59:23;;;;;;;12.20;10.97;;;;;;;18.07;74.35;101320.66;4992663;28;20209;-70
2023/06/22 03:01:51;;;;;;;12.40;11.10;;;;;;;18.09;74.51;101331.75;5000450;28;20488;-70
2023/06/22 03:04:28;;;;;;;12.50;11.17;;;;;;;18.10;74.54;101322.59;4994200;28;20211;-70
2023/06/22 03:06:54;;;;;;;12.37;11.00;;;;;;;18.11;74.60;101313.47;4993561;28;20208;-70
2023/06/22 03:09:21;;;;;;;12.53;10.97;;;;;;;18.12;74.51;101313.09;4998569;28;20544;-70
2023/06/22 03:11:48;;;;;;;12.57;11.27;;;;;;;18.12;74.65;101321.09;4997769;28;20201;-70
2023/06/22 03:14:16;;;;;;;12.57;11.27;;;;;;;18.15;74.46;101315.06;4994040;28;20711;-70
2023/06/22 03:16:42;;;;;;;13.17;11.87;;;;;;;18.17;75.00;101304.00;4998076;28;20196;-70
2023/06/22 03:19:09;;;;;;;12.97;11.63;;;;;;;18.18;75.04;101309.00;4995741;28;20217;-70
2023/06/22 03:21:37;;;;;;;12.60;11.30;;;;;;;18.20;75.17;101306.72;4994706;28;20193;-70
2023/06/22 03:24:05;;;;;;;12.80;11.50;;;;;;;18.23;75.06;101310.59;4990116;28;20201;-70
2023/06/22 03:26:32;;;;;;;15.00;11.63;;;;;;;18.25;74.97;101300.28;4996796;28;20200;-70
2023/06/22 03:29:00;;;;;;;14.27;12.27;;;;;;;18.29;75.12;101304.59;4997475;28;20635;-70
2023/06/22 03:31:29;;;;;;;15.00;12.40;;;;;;;18.29;75.33;101307.25;4993723;28;20268;-70
2023/06/22 03:33:55;;;;;;;14.50;12.47;;;;;;;18.32;74.88;101305.81;5016093;28;20217;-70
2023/06/22 03:36:23;;;;;;;14.63;13.13;;;;;;;18.34;74.55;101296.28;4994850;28;20671;-70
2023/06/22 03:38:51;;;;;;;14.80;13.30;;;;;;;18.38;74.38;101304.34;4996421;28;20921;-70
2023/06/22 03:41:18;;;;;;;14.83;12.90;;;;;;;18.44;74.04;101305.59;4990293;28;20455;-70
2023/06/22 03:43:44;;;;;;;16.07;13.57;;;;;;;18.47;73.24;101310.97;4992468;28;20680;-70
2023/06/22 03:46:12;;;;;;;16.13;14.43;;;;;;;18.53;73.76;101306.09;4989800;28;20205;-70
2023/06/22 03:48:38;;;;;;;13.80;12.07;;;;;;;18.58;73.73;101297.78;4991384;28;20233;-70
2023/06/22 03:51:05;;;;;;;15.03;13.43;;;;;;;18.63;73.64;101300.13;4989494;28;20221;-70
2023/06/22 03:53:31;;;;;;;16.23;14.57;;;;;;;18.68;73.01;101297.16;4990524;28;20660;-70
2023/06/22 03:55:58;;;;;;;16.23;14.53;;;;;;;18.72;72.18;101290.69;4993394;28;20261;-70
2023/06/22 03:58:24;;;;;;;16.10;14.40;;;;;;;18.79;73.01;101306.84;4994171;28;20405;-70
2023/06/22 04:00:52;;;;;;;15.53;13.93;;;;;;;18.85;72.59;101301.94;4996703;28;20684;-70
2023/06/22 04:03:20;;;;;;;15.67;14.07;;;;;;;18.92;72.55;101299.34;4991293;28;20245;-70
2023/06/22 04:05:47;;;;;;;16.80;14.93;;;;;;;19.00;72.32;101301.00;4989784;28;20202;-70
2023/06/22 04:08:14;;;;;;;16.57;14.87;;;;;;;19.09;73.01;101304.19;4991415;28;20251;-70
2023/06/22 04:10:40;;;;;;;16.10;14.23;;;;;;;19.17;72.74;101311.94;4988821;28;20225;-70
2023/06/22 04:13:07;;;;;;;16.73;14.90;;;;;;;19.26;72.25;101309.00;4990026;28;20204;-70
2023/06/22 04:15:34;;;;;;;19.57;15.40;;;;;;;19.35;72.40;101312.16;4990762;28;20762;-70
2023/06/22 04:18:00;;;;;;;16.50;14.80;;;;;;;19.43;72.27;101319.91;4991078;28;20228;-70
2023/06/22 04:20:28;;;;;;;18.33;15.13;;;;;;;19.51;71.37;101321.50;4989135;28;20208;-70
2023/06/22 04:22:55;;;;;;;15.67;14.07;;;;;;;19.62;71.61;101318.94;4989080;28;20201;-70
2023/06/22 04:25:21;;;;;;;17.43;15.23;;;;;;;19.70;71.46;101323.22;4990017;28;20201;-70
2023/06/22 04:27:48;;;;;;;18.17;14.77;;;;;;;19.79;70.77;101312.97;4989014;28;20321;-70
2023/06/22 04:30:16;;;;;;;17.47;14.97;;;;;;;19.89;70.99;101309.63;4991045;28;20223;-70
2023/06/22 04:32:43;;;;;;;16.23;14.53;;;;;;;19.97;70.93;101311.97;4993114;28;20207;-70
2023/06/22 04:35:10;;;;;;;16.83;15.13;;;;;;;20.08;70.76;101301.38;4992774;28;20608;-70
2023/06/22 04:37:39;;;;;;;17.63;14.93;;;;;;;20.16;70.07;101308.34;4992323;28;20224;-70
2023/06/22 04:40:07;;;;;;;20.60;15.60;;;;;;;20.25;70.78;101312.25;4994759;28;20571;-70
2023/06/22 04:42:35;;;;;;;17.27;15.07;;;;;;;20.36;70.32;101313.09;4995066;28;20212;-70
2023/06/22 04:45:01;;;;;;;17.73;15.73;;;;;;;20.43;69.80;101312.38;4988545;28;20562;-70
2023/06/22 04:47:28;;;;;;;17.23;15.43;;;;;;;20.53;69.65;101322.38;4992634;28;20210;-70
2023/06/22 04:49:54;;;;;;;17.23;15.53;;;;;;;20.63;69.88;101314.41;4992988;28;20672;-70
2023/06/22 04:52:20;;;;;;;17.93;16.07;;;;;;;20.74;69.22;101311.78;4987428;28;20206;-70
2023/06/22 04:54:55;;;;;;;16.97;15.17;;;;;;;20.85;69.12;101312.63;4993219;28;20206;-70
2023/06/22 04:57:30;;;;;;;17.23;15.43;;;;;;;20.97;69.63;101312.31;4988181;28;20224;-70
2023/06/22 04:59:57;;;;;;;16.83;14.67;;;;;;;21.09;68.75;101330.75;4990210;28;20598;-70
2023/06/22 05:02:31;;;;;;;17.97;15.37;;;;;;;21.19;68.64;101335.41;4991917;28;20216;-70
2023/06/22 05:04:58;;;;;;;16.50;14.17;;;;;;;21.27;68.03;101328.94;4990690;28;20209;-70
2023/06/22 05:07:25;;;;;;;16.40;14.30;;;;;;;21.39;67.85;101334.72;4992687;28;20213;-70
2023/06/22 05:09:53;;;;;;;17.07;14.07;;;;;;;21.49;68.18;101325.94;4989309;28;20659;-70
2023/06/22 05:12:19;;;;;;;16.47;14.77;;;;;;;21.60;67.38;101332.09;4991003;28;20312;-70
2023/06/22 05:14:45;;;;;;;16.80;15.03;;;;;;;21.71;67.06;101340.19;4991389;28;20219;-70
2023/06/22 05:17:13;;;;;;;20.60;14.70;;;;;;;21.80;66.70;101337.91;4990811;28;20217;-70
2023/06/22 05:19:48;;;;;;;14.23;12.77;;;;;;;21.93;66.41;101333.69;4990775;28;20435;-70
2023/06/22 05:22:15;;;;;;;15.80;13.03;;;;;;;22.04;65.67;101334.47;4988891;28;20209;-70
2023/06/22 05:24:42;;;;;;;14.77;13.17;;;;;;;22.13;65.54;101343.69;4989674;28;20196;-70
2023/06/22 05:27:09;;;;;;;14.97;13.13;;;;;;;22.24;65.25;101355.22;4988121;28;20221;-70
2023/06/22 05:29:36;;;;;;;14.63;13.13;;;;;;;22.36;64.74;101354.81;4986684;28;20208;-70
2023/06/22 05:32:03;;;;;;;15.70;13.10;;;;;;;22.43;64.50;101357.50;4989786;28;20216;-70
2023/06/22 05:34:30;;;;;;;14.20;12.27;;;;;;;22.52;64.07;101357.94;4989490;28;20209;-70
2023/06/22 05:36:58;;;;;;;14.10;12.53;;;;;;;22.62;64.20;101367.88;4988378;28;20220;-70
2023/06/22 05:39:25;;;;;;;15.57;12.63;;;;;;;22.72;63.66;101374.44;4989291;28;20209;-70
2023/06/22 05:41:51;;;;;;;13.87;12.43;;;;;;;22.82;63.21;101387.84;4989939;28;20279;-70
2023/06/22 05:44:19;;;;;;;14.60;12.10;;;;;;;22.93;63.56;101385.91;4988959;28;20205;-70
2023/06/22 05:46:46;;;;;;;15.63;12.57;;;;;;;23.01;63.10;101387.44;4988785;28;20197;-70
2023/06/22 05:49:13;;;;;;;17.73;12.50;;;;;;;23.09;62.81;101385.47;4993386;28;20758;-71
2023/06/22 05:51:40;;;;;;;17.43;12.60;;;;;;;23.18;62.90;101383.94;4994810;28;20216;-70
2023/06/22 05:54:07;;;;;;;13.87;12.37;;;;;;;23.28;62.77;101383.13;4989015;28;20202;-70
2023/06/22 05:56:34;;;;;;;14.80;12.23;;;;;;;23.37;62.64;101384.63;4987763;28;20280;-70
2023/06/22 05:59:00;;;;;;;13.33;11.93;;;;;;;23.47;62.19;101376.47;4988379;28;20599;-70
2023/06/22 06:01:28;;;;;;;15.18;11.70;;;;;;;23.58;62.19;101387.97;4984989;28;20200;-70
2023/06/22 06:03:54;;;;;;;14.65;12.60;;;;;;;23.68;62.16;101390.63;4984152;28;20220;-70
2023/06/22 06:06:22;;;;;;;12.70;11.45;;;;;;;23.79;62.18;101390.56;4987899;28;20555;-70
2023/06/22 06:08:48;;;;;;;12.73;11.27;;;;;;;23.90;61.76;101399.41;4987851;28;20235;-70
2023/06/22 06:11:15;;;;;;;12.10;10.88;;;;;;;23.99;61.67;101393.56;4986268;28;20217;-70
2023/06/22 06:13:41;;;;;;;12.05;10.80;;;;;;;24.04;61.57;101401.97;4987925;28;20205;-71
2023/06/22 06:16:08;;;;;;;11.90;10.65;;;;;;;24.12;61.50;101400.78;4988603;28;20205;-71
2023/06/22 06:18:37;;;;;;;12.18;10.57;;;;;;;24.22;61.08;101399.94;4990502;28;20225;-70
2023/06/22 06:21:03;;;;;;;12.55;11.02;;;;;;;24.31;61.11;101410.28;4990290;28;20201;-70
2023/06/22 06:23:30;;;;;;;11.48;10.32;;;;;;;24.42;61.06;101416.34;4987770;28;20201;-71
2023/06/22 06:25:56;;;;;;;13.18;11.13;;;;;;;24.53;60.46;101407.00;4986815;28;20201;-70
2023/06/22 06:28:23;;;;;;;11.18;10.02;;;;;;;24.61;60.43;101411.19;4987096;28;20236;-70
2023/06/22 06:30:51;;;;;;;12.40;11.20;;;;;;;24.70;60.48;101405.34;4988623;28;20232;-70
2023/06/22 06:33:18;;;;;;;13.13;11.27;;;;;;;24.80;59.94;101405.22;4987145;28;20203;-70
2023/06/22 06:35:45;;;;;;;13.40;10.40;;;;;;;24.89;59.80;101399.34;4989500;28;20916;-71
2023/06/22 06:38:12;;;;;;;10.65;9.57;;;;;;;25.00;59.92;101394.56;4989015;28;20594;-70
2023/06/22 06:40:38;;;;;;;11.73;10.57;;;;;;;25.10;59.83;101391.00;4986535;28;20676;-71
2023/06/22 06:43:04;;;;;;;10.57;9.40;;;;;;;25.18;59.09;101376.97;4987056;28;20209;-70
2023/06/22 06:45:32;;;;;;;10.88;9.45;;;;;;;25.28;59.00;101372.66;4985517;28;20632;-71
2023/06/22 06:47:59;;;;;;;11.43;9.35;;;;;;;25.35;58.49;101357.13;4985447;28;20231;-71
2023/06/22 06:50:25;;;;;;;10.82;9.73;;;;;;;25.46;59.00;101359.66;4985909;28;20640;-70
2023/06/22 06:52:53;;;;;;;11.93;9.07;;;;;;;25.52;58.81;101368.84;4984492;28;20228;-71
2023/06/22 06:55:20;;;;;;;10.55;9.52;;;;;;;25.57;58.14;101352.94;4984189;28;20207;-71
2023/06/22 06:57:48;;;;;;;11.13;9.07;;;;;;;25.65;57.90;101345.50;4986811;28;20225;-71
2023/06/22 07:00:16;;;;;;;10.23;9.00;;;;;;;25.71;57.02;101344.63;4982486;28;20209;-71
2023/06/22 07:02:44;;;;;;;11.30;9.27;;;;;;;25.76;57.92;101346.09;4983292;28;20783;-71
2023/06/22 07:05:11;;;;;;;10.32;9.13;;;;;;;25.82;56.75;101353.34;4983014;28;20679;-71
2023/06/22 07:07:38;;;;;;;10.55;8.70;;;;;;;25.90;56.80;101346.63;4982816;28;20594;-71
2023/06/22 07:10:07;;;;;;;9.57;8.63;;;;;;;25.98;56.70;101342.69;4984625;28;20201;-71
2023/06/22 07:12:33;;;;;;;8.95;8.10;;;;;;;26.09;56.41;101334.38;4985353;28;20229;-71
2023/06/22 07:15:03;;;;;;;10.57;9.30;;;;;;;26.18;56.49;101324.56;4984474;28;20204;-71
2023/06/22 07:17:30;;;;;;;9.70;8.80;;;;;;;26.24;54.98;101328.31;4986464;28;20221;-71
2023/06/22 07:19:56;;;;;;;9.15;8.25;;;;;;;26.36;55.62;101318.84;4988063;28;20640;-71
2023/06/22 07:22:22;;;;;;;9.32;8.43;;;;;;;26.41;54.48;101308.28;4985154;28;20638;-71
2023/06/22 07:24:49;;;;;;;10.30;7.72;;;;;;;26.48;55.47;101315.50;4990978;28;20579;-71
2023/06/22 07:27:19;;;;;;;9.70;8.00;;;;;;;26.62;55.00;101318.75;4988019;28;20371;-71
2023/06/22 07:29:45;;;;;;;9.07;7.65;;;;;;;26.68;54.54;101327.91;4990421;28;20783;-71
2023/06/22 07:32:11;;;;;;;7.72;7.03;;;;;;;26.72;54.42;101331.31;4992821;28;20713;-71
2023/06/22 07:34:38;;;;;;;8.07;7.28;;;;;;;26.73;54.27;101334.81;4988405;28;20205;-71
2023/06/22 07:37:05;;;;;;;11.95;7.93;;;;;;;26.78;54.00;101326.19;4985740;28;20431;-71
2023/06/22 07:39:31;;;;;;;8.40;7.43;;;;;;;26.82;53.68;101329.56;4987777;28;20212;-71
2023/06/22 07:41:58;;;;;;;7.43;6.60;;;;;;;26.90;52.74;101329.03;4989687;28;20201;-71
2023/06/22 07:44:25;;;;;;;9.35;6.90;;;;;;;26.93;53.66;101325.47;4989855;28;20233;-71
2023/06/22 07:46:52;;;;;;;6.78;6.10;;;;;;;27.02;52.83;101327.63;4988269;28;20219;-71
2023/06/22 07:49:18;;;;;;;7.93;6.93;;;;;;;27.11;51.51;101319.69;4988745;28;20217;-71
2023/06/22 07:51:45;;;;;;;7.10;6.30;;;;;;;27.18;50.79;101325.75;4985740;28;20222;-71
2023/06/22 07:54:11;;;;;;;7.28;6.20;;;;;;;27.25;50.30;101317.47;4987793;28;20767;-71
2023/06/22 07:56:38;;;;;;;7.20;5.85;;;;;;;27.34;51.01;101314.19;4985976;28;20288;-71
2023/06/22 07:59:04;;;;;;;7.30;6.60;;;;;;;27.41;49.12;101314.78;4991186;28;20232;-71
2023/06/22 08:01:32;;;;;;;7.03;6.43;;;;;;;27.55;49.81;101311.00;4986995;28;20209;-71
2023/06/22 08:03:58;;;;;;;7.93;6.55;;;;;;;27.61;48.63;101318.19;4988918;28;20292;-71
2023/06/22 08:06:25;;;;;;;7.88;6.30;;;;;;;27.66;47.93;101309.56;4987611;28;20213;-71
2023/06/22 08:08:52;;;;;;;6.63;5.97;;;;;;;27.72;49.00;101316.00;4989987;28;20228;-71
2023/06/22 08:11:19;;;;;;;6.38;5.55;;;;;;;27.81;48.00;101310.78;4989807;28;20225;-71
2023/06/22 08:13:45;;;;;;;7.35;6.60;;;;;;;27.92;47.34;101315.97;4988333;28;20220;-71
2023/06/22 08:16:11;;;;;;;7.45;6.75;;;;;;;28.04;48.05;101326.13;4988354;28;20206;-71
2023/06/22 08:18:39;;;;;;;8.88;6.45;;;;;;;28.16;46.65;101318.03;4988561;28;20779;-71
2023/06/22 08:21:05;;;;;;;10.15;6.88;;;;;;;28.27;45.15;101318.53;4987311;28;20580;-71
2023/06/22 08:23:32;;;;;;;7.20;6.50;;;;;;;28.41;45.14;101320.13;4984802;28;20213;-71
2023/06/22 08:25:58;;;;;;;12.32;7.00;;;;;;;28.53;47.82;101325.63;4985638;28;20224;-71
2023/06/22 08:28:25;;;;;;;7.45;6.43;;;;;;;28.60;47.28;101316.53;4985536;28;20225;-71
2023/06/22 08:30:51;;;;;;;7.10;6.40;;;;;;;28.68;45.99;101326.00;4986297;28;20262;-71
2023/06/22 08:33:17;;;;;;;7.32;6.53;;;;;;;28.80;44.99;101322.56;4986810;28;20633;-71
2023/06/22 08:35:45;;;;;;;6.30;5.70;;;;;;;28.94;46.00;101320.19;4986952;28;20201;-71
2023/06/22 08:38:13;;;;;;;7.05;6.35;;;;;;;29.07;45.33;101322.97;4986082;28;20312;-71
2023/06/22 08:40:40;;;;;;;7.20;6.53;;;;;;;29.20;45.70;101315.59;4985002;28;20744;-71
2023/06/22 08:43:06;;;;;;;6.97;6.28;;;;;;;29.28;45.64;101309.50;4985917;28;20476;-71
2023/06/22 08:45:32;;;;;;;7.03;6.20;;;;;;;29.35;41.50;101312.00;4986513;28;20214;-71
2023/06/22 08:47:59;;;;;;;6.78;5.82;;;;;;;29.42;44.12;101300.88;4986715;28;20240;-71
2023/06/22 08:50:25;;;;;;;6.57;5.20;;;;;;;29.46;44.19;101298.06;4987879;28;20209;-71
2023/06/22 08:52:53;;;;;;;6.55;5.70;;;;;;;29.49;41.62;101300.69;4986648;28;20235;-71
2023/06/22 08:55:19;;;;;;;6.95;5.95;;;;;;;29.53;42.98;101301.31;4986309;28;20205;-71
2023/06/22 08:57:46;;;;;;;5.72;5.22;;;;;;;29.55;42.05;101304.41;4986167;28;20225;-71
2023/06/22 09:00:18;;;;;;;5.82;5.32;;;;;;;29.59;42.27;101307.78;4984186;28;20216;-71
2023/06/22 09:02:44;;;;;;;5.38;4.97;;;;;;;29.69;40.15;101303.19;4984278;28;20208;-71
2023/06/22 09:05:11;;;;;;;6.13;5.50;;;;;;;29.75;41.02;101299.47;4982426;28;20205;-71
2023/06/22 09:07:37;;;;;;;6.25;5.65;;;;;;;29.73;41.80;101284.78;4984736;28;20229;-71
2023/06/22 09:10:06;;;;;;;6.00;4.80;;;;;;;29.75;40.23;101276.91;4985769;28;20205;-71
2023/06/22 09:12:32;;;;;;;5.25;4.65;;;;;;;29.75;39.51;101279.66;4985640;28;20217;-71
2023/06/22 09:15:00;;;;;;;5.05;4.55;;;;;;;29.79;39.34;101281.06;4984382;28;21325;-71
2023/06/22 09:17:26;;;;;;;5.22;4.50;;;;;;;29.88;38.59;101281.13;4986461;28;20221;-71
2023/06/22 09:19:52;;;;;;;4.97;4.57;;;;;;;29.99;40.24;101286.25;4987099;28;20811;-71
2023/06/22 09:22:19;;;;;;;5.00;4.55;;;;;;;30.16;38.93;101279.44;4985659;28;20594;-71
2023/06/22 09:24:45;;;;;;;4.97;4.57;;;;;;;30.33;39.32;101276.09;4984246;28;20580;-71
2023/06/22 09:27:13;;;;;;;4.80;4.40;;;;;;;30.49;37.05;101284.09;4984211;28;20689;-71
2023/06/22 09:29:39;;;;;;;5.70;5.20;;;;;;;30.59;37.23;101279.44;4983325;28;20545;-71
2023/06/22 09:32:06;;;;;;;5.10;4.70;;;;;;;30.67;38.61;101273.34;4984815;28;20225;-71
2023/06/22 09:34:33;;;;;;;5.25;4.75;;;;;;;30.77;36.20;101266.72;4983376;28;20205;-71
2023/06/22 09:37:00;;;;;;;5.60;5.03;;;;;;;30.83;37.93;101267.69;4979558;28;20220;-71
2023/06/22 09:39:26;;;;;;;6.88;5.00;;;;;;;30.96;35.95;101267.59;4982408;28;20212;-71
2023/06/22 09:41:53;;;;;;;5.30;4.82;;;;;;;31.05;36.57;101262.16;4983278;28;20569;-71
2023/06/22 09:44:21;;;;;;;8.15;5.22;;;;;;;31.14;35.56;101257.50;4983950;28;20205;-71
2023/06/22 09:46:47;;;;;;;5.28;4.82;;;;;;;31.20;35.96;101260.41;4978513;28;20208;-71
2023/06/22 09:49:13;;;;;;;5.70;5.20;;;;;;;31.17;37.22;101256.59;4982498;28;20217;-71
2023/06/22 09:51:40;;;;;;;5.45;4.95;;;;;;;31.18;35.10;101258.09;4985134;28;20210;-71
2023/06/22 09:54:06;;;;;;;5.05;4.55;;;;;;;31.24;35.67;101269.25;4982504;28;20216;-71
2023/06/22 09:56:32;;;;;;;4.82;4.40;;;;;;;31.30;35.31;101256.50;4982730;28;20216;-71
2023/06/22 09:58:59;;;;;;;6.75;4.85;;;;;;;31.39;35.05;101262.00;4982461;28;20235;-71
2023/06/22 10:01:26;;;;;;;5.80;5.30;;;;;;;31.52;36.27;101260.66;4983154;28;20205;-71
2023/06/22 10:03:55;;;;;;;6.07;5.07;;;;;;;31.60;36.57;101256.44;4982605;28;20537;-71
2023/06/22 10:06:22;;;;;;;5.57;5.07;;;;;;;31.53;34.01;101254.00;4982875;28;20695;-71
2023/06/22 10:08:49;;;;;;;5.97;5.38;;;;;;;31.51;35.67;101261.13;4982313;28;20472;-71
2023/06/22 10:11:15;;;;;;;5.47;4.70;;;;;;;31.59;34.47;101246.72;4982476;28;20201;-71
2023/06/22 10:13:41;;;;;;;6.63;5.68;;;;;;;31.69;35.84;101258.44;4981629;28;20220;-71
2023/06/22 10:16:08;;;;;;;5.10;4.70;;;;;;;31.79;36.12;101252.53;4984497;28;20220;-71
2023/06/22 10:18:35;;;;;;;5.28;4.78;;;;;;;31.85;34.50;101258.91;4995461;28;20650;-71
2023/06/22 10:21:02;;;;;;;5.43;4.93;;;;;;;31.79;33.40;101243.59;4982633;28;20711;-71
2023/06/22 10:23:29;;;;;;;6.45;5.85;;;;;;;31.92;34.75;101257.88;4982250;28;20217;-71
2023/06/22 10:25:57;;;;;;;5.40;4.90;;;;;;;32.03;35.18;101258.16;4983241;28;20224;-71
2023/06/22 10:28:23;;;;;;;5.90;5.28;;;;;;;32.15;35.26;101260.00;4984869;28;20344;-71
2023/06/22 10:30:50;;;;;;;5.43;4.93;;;;;;;32.19;33.98;101260.59;4982762;28;20213;-71
2023/06/22 10:33:16;;;;;;;5.47;4.97;;;;;;;32.24;33.79;101258.03;4982945;28;20213;-71
2023/06/22 10:35:44;;;;;;;5.93;5.20;;;;;;;32.27;33.94;101256.38;4981946;28;20219;-71
2023/06/22 10:38:10;;;;;;;6.25;5.65;;;;;;;32.30;33.93;101252.72;4983160;28;20217;-71
2023/06/22 10:40:37;;;;;;;5.07;4.63;;;;;;;32.30;34.00;101241.78;4983168;28;20213;-71
2023/06/22 10:43:03;;;;;;;6.30;5.70;;;;;;;32.23;34.85;101242.84;4982884;28;20201;-71
2023/06/22 10:45:29;;;;;;;6.22;5.55;;;;;;;32.12;33.93;101239.03;4982568;28;20205;-71
2023/06/22 10:47:56;;;;;;;6.50;5.70;;;;;;;32.04;34.46;101240.56;4982343;28;20224;-71
2023/06/22 10:50:23;;;;;;;6.15;5.65;;;;;;;32.04;34.84;101232.34;4987757;28;20559;-71
2023/06/22 10:52:51;;;;;;;5.90;5.35;;;;;;;32.01;34.65;101217.63;4986234;28;20227;-71
2023/06/22 10:55:18;;;;;;;6.85;5.55;;;;;;;31.96;32.92;101222.97;4987826;28;20196;-71
2023/06/22 10:57:46;;;;;;;5.63;5.13;;;;;;;31.93;33.78;101215.66;4986492;28;20225;-71
2023/06/22 11:00:15;;;;;;;5.28;4.85;;;;;;;31.92;33.89;101212.19;4986976;28;20215;-71
2023/06/22 11:02:41;;;;;;;6.00;5.40;;;;;;;31.92;34.66;101206.72;4985894;28;20220;-71
2023/06/22 11:05:08;;;;;;;6.68;5.82;;;;;;;31.97;34.84;101203.38;4986649;28;20223;-71
2023/06/22 11:07:34;;;;;;;5.95;5.45;;;;;;;32.07;34.34;101193.19;4986205;28;20224;-71
2023/06/22 11:10:02;;;;;;;6.05;5.45;;;;;;;32.14;33.74;101198.34;4987307;28;20210;-71
2023/06/22 11:12:28;;;;;;;5.78;5.28;;;;;;;32.11;34.77;101183.63;4988557;28;20217;-71
2023/06/22 11:14:57;;;;;;;6.03;5.43;;;;;;;32.11;33.72;101180.88;4985413;28;20212;-71
2023/06/22 11:17:23;;;;;;;7.82;6.00;;;;;;;32.03;34.38;101189.84;4985757;28;20311;-71